createdAt,value
2016-11-13T00:00:40.438Z,0.28
2016-11-13T00:01:40.998Z,0.23
2016-11-13T00:02:40.952Z,0.33
2016-11-13T00:03:40.918Z,0.32
2016-11-13T00:04:40.870Z,0.44
2016-11-13T00:05:40.829Z,0.39
2016-11-13T00:06:40.479Z,0.42
2016-11-13T00:07:40.740Z,0.46
2016-11-13T00:08:40.698Z,0.5
2016-11-13T00:09:40.653Z,0.5
2016-11-13T00:10:40.326Z,0.49
2016-11-13T00:11:40.570Z,0.58
2016-11-13T00:12:40.528Z,0.62
2016-11-13T00:13:40.484Z,0.65
2016-11-13T00:14:40.443Z,0.68
2016-11-13T00:15:40.402Z,0.65
2016-11-13T00:16:40.054Z,0.65
2016-11-13T00:17:40.316Z,0.66
2016-11-13T00:18:39.971Z,0.61
2016-11-13T00:19:40.227Z,0.61
2016-11-13T00:20:40.190Z,0.61
2016-11-13T00:21:40.142Z,0.66
2016-11-13T00:22:40.119Z,0.69
2016-11-13T00:23:39.755Z,0.65
2016-11-13T00:24:39.713Z,0.65
2016-11-13T00:25:39.976Z,0.69
2016-11-13T00:26:39.629Z,0.7
2016-11-13T00:27:39.584Z,0.62
2016-11-13T00:28:39.571Z,0.73
2016-11-13T00:29:39.805Z,0.6
2016-11-13T00:30:39.761Z,0.7
2016-11-13T00:31:39.715Z,0.69
2016-11-13T00:32:39.683Z,0.62
2016-11-13T00:33:39.032Z,0.66
2016-11-13T00:34:39.290Z,0.65
2016-11-13T00:35:39.578Z,0.58
2016-11-13T00:36:39.502Z,0.49
2016-11-13T00:37:39.462Z,0.5
2016-11-13T00:38:39.151Z,0.5
2016-11-13T00:39:39.074Z,0.44
2016-11-13T00:40:39.035Z,0.44
2016-11-13T00:41:39.291Z,0.39
2016-11-13T00:42:38.950Z,0.41
2016-11-13T00:43:38.909Z,0.36
2016-11-13T00:44:39.163Z,0.31
2016-11-13T00:45:38.817Z,0.32
2016-11-13T00:46:39.115Z,0.28
2016-11-13T00:47:39.074Z,0.32
2016-11-13T00:48:38.692Z,0.24
2016-11-13T00:49:38.950Z,0.33
2016-11-13T00:50:38.601Z,0.32
2016-11-13T00:51:38.566Z,0.26
2016-11-13T00:52:38.818Z,0.23
2016-11-13T00:53:38.776Z,0.24
2016-11-13T00:54:38.738Z,0.23
2016-11-13T00:55:38.391Z,0.18
2016-11-13T00:56:38.650Z,0.26
2016-11-13T00:57:38.609Z,0.23
2016-11-13T00:58:38.264Z,0.18
2016-11-13T00:59:38.523Z,0.28
2016-11-13T01:00:38.177Z,0.23
2016-11-13T01:01:38.450Z,0.17
2016-11-13T01:02:38.392Z,0.21
2016-11-13T01:03:37.749Z,0.24
2016-11-13T01:04:38.318Z,0.13
2016-11-13T01:05:38.266Z,0.11
2016-11-13T01:06:38.229Z,0.11
2016-11-13T01:07:38.186Z,0.15
2016-11-13T01:08:38.149Z,0.1
2016-11-13T01:09:37.797Z,0.11
2016-11-13T01:10:38.053Z,0.13
2016-11-13T01:11:37.712Z,0.11
2016-11-13T01:12:37.973Z,0.17
2016-11-13T01:13:37.325Z,0.18
2016-11-13T01:14:37.583Z,0.18
2016-11-13T01:15:37.848Z,0.1
2016-11-13T01:16:37.794Z,0.08
2016-11-13T01:17:37.753Z,0.08
2016-11-13T01:18:37.711Z,0.07
2016-11-13T01:19:37.368Z,0.07
2016-11-13T01:20:37.319Z,0.07
2016-11-13T01:21:37.583Z,0.04
2016-11-13T01:22:37.541Z,-0.01
2016-11-13T01:23:37.497Z,-0.01
2016-11-13T01:24:37.459Z,0
2016-11-13T01:25:37.115Z,-0.04
2016-11-13T01:26:37.067Z,0.03
2016-11-13T01:27:37.335Z,-0.08
2016-11-13T01:28:36.986Z,-0.04
2016-11-13T01:29:37.243Z,0.02
2016-11-13T01:30:36.898Z,-0.07
2016-11-13T01:31:37.156Z,-0.08
2016-11-13T01:32:37.149Z,0.04
2016-11-13T01:33:37.066Z,-0.05
2016-11-13T01:34:37.026Z,-0.04
2016-11-13T01:35:36.988Z,0
2016-11-13T01:36:36.941Z,-0.14
2016-11-13T01:37:36.898Z,-0.11
2016-11-13T01:38:36.557Z,-0.07
2016-11-13T01:39:36.813Z,-0.16
2016-11-13T01:40:36.473Z,-0.14
2016-11-13T01:41:36.729Z,-0.18
2016-11-13T01:42:36.687Z,-0.18
2016-11-13T01:43:36.639Z,-0.16
2016-11-13T01:44:36.609Z,-0.19
2016-11-13T01:45:36.555Z,-0.25
2016-11-13T01:46:36.514Z,-0.25
2016-11-13T01:47:36.167Z,-0.25
2016-11-13T01:48:36.428Z,-0.25
2016-11-13T01:49:36.386Z,-0.23
2016-11-13T01:50:36.348Z,-0.25
2016-11-13T01:51:35.997Z,-0.28
2016-11-13T01:52:36.256Z,-0.23
2016-11-13T01:53:36.213Z,-0.29
2016-11-13T01:54:35.869Z,-0.34
2016-11-13T01:55:36.126Z,-0.39
2016-11-13T01:56:35.822Z,-0.39
2016-11-13T01:57:35.745Z,-0.37
2016-11-13T01:58:35.700Z,-0.37
2016-11-13T01:59:35.957Z,-0.39
2016-11-13T02:00:35.611Z,-0.39
2016-11-13T02:01:35.874Z,-0.4
2016-11-13T02:02:35.827Z,-0.39
2016-11-13T02:03:35.482Z,-0.34
2016-11-13T02:04:35.738Z,-0.26
2016-11-13T02:05:35.392Z,-0.28
2016-11-13T02:06:35.651Z,-0.29
2016-11-13T02:07:35.614Z,-0.26
2016-11-13T02:08:35.569Z,-0.28
2016-11-13T02:09:35.226Z,-0.23
2016-11-13T02:10:35.183Z,-0.19
2016-11-13T02:11:35.138Z,-0.14
2016-11-13T02:12:35.095Z,-0.14
2016-11-13T02:13:35.355Z,-0.14
2016-11-13T02:14:35.315Z,-0.1
2016-11-13T02:15:35.272Z,-0.05
2016-11-13T02:16:35.224Z,-0.05
2016-11-13T02:17:34.877Z,-0.03
2016-11-13T02:18:35.143Z,0.13
2016-11-13T02:19:35.103Z,0.04
2016-11-13T02:20:35.056Z,0.07
2016-11-13T02:21:35.014Z,0.08
2016-11-13T02:22:34.664Z,0.1
2016-11-13T02:23:34.930Z,0.15
2016-11-13T02:24:34.885Z,0.17
2016-11-13T02:25:34.842Z,0.17
2016-11-13T02:26:34.801Z,0.28
2016-11-13T02:27:34.759Z,0.2
2016-11-13T02:28:34.741Z,0.31
2016-11-13T02:29:34.676Z,0.33
2016-11-13T02:30:34.628Z,0.29
2016-11-13T02:31:34.620Z,0.32
2016-11-13T02:32:34.541Z,0.47
2016-11-13T02:33:34.499Z,0.41
2016-11-13T02:34:34.457Z,0.42
2016-11-13T02:35:34.413Z,0.49
2016-11-13T02:36:34.069Z,0.53
2016-11-13T02:37:34.024Z,0.5
2016-11-13T02:38:34.287Z,0.55
2016-11-13T02:39:34.244Z,0.55
2016-11-13T02:40:34.200Z,0.65
2016-11-13T02:41:34.156Z,0.68
2016-11-13T02:42:34.116Z,0.65
2016-11-13T02:43:33.767Z,0.79
2016-11-13T02:44:34.028Z,0.78
2016-11-13T02:45:33.983Z,0.73
2016-11-13T02:46:33.637Z,0.72
2016-11-13T02:47:33.297Z,0.75
2016-11-13T02:48:33.872Z,0.76
2016-11-13T02:49:33.812Z,0.75
2016-11-13T02:50:33.770Z,0.8
2016-11-13T02:51:33.728Z,0.87
2016-11-13T02:52:33.688Z,0.8
2016-11-13T02:53:33.343Z,0.88
2016-11-13T02:54:33.298Z,0.86
2016-11-13T02:55:33.564Z,0.93
2016-11-13T02:56:33.516Z,0.91
2016-11-13T02:57:33.192Z,0.91
2016-11-13T02:58:33.436Z,0.93
2016-11-13T02:59:33.390Z,0.94
2016-11-13T03:00:33.351Z,0.96
2016-11-13T03:01:33.306Z,0.96
2016-11-13T03:02:33.263Z,0.97
2016-11-13T03:03:33.224Z,0.96
2016-11-13T03:04:32.875Z,1.08
2016-11-13T03:05:33.149Z,1.06
2016-11-13T03:06:33.093Z,1.05
2016-11-13T03:07:33.053Z,1.06
2016-11-13T03:08:33.011Z,1.06
2016-11-13T03:09:32.663Z,0.97
2016-11-13T03:10:32.956Z,1.08
2016-11-13T03:11:32.877Z,1.06
2016-11-13T03:12:32.533Z,1.04
2016-11-13T03:13:32.495Z,0.98
2016-11-13T03:14:32.754Z,1.02
2016-11-13T03:15:32.716Z,0.98
2016-11-13T03:16:32.362Z,0.97
2016-11-13T03:17:32.626Z,0.98
2016-11-13T03:18:32.581Z,1.05
2016-11-13T03:19:32.541Z,0.91
2016-11-13T03:20:32.496Z,0.97
2016-11-13T03:21:32.485Z,0.97
2016-11-13T03:22:32.410Z,0.91
2016-11-13T03:23:32.370Z,1
2016-11-13T03:24:32.323Z,0.98
2016-11-13T03:25:32.287Z,1.02
2016-11-13T03:26:31.951Z,1.05
2016-11-13T03:27:32.207Z,1.08
2016-11-13T03:28:32.159Z,1.05
2016-11-13T03:29:31.815Z,1.15
2016-11-13T03:30:32.071Z,1.15
2016-11-13T03:31:32.031Z,1.11
2016-11-13T03:32:31.682Z,1.14
2016-11-13T03:33:31.945Z,1.15
2016-11-13T03:34:31.604Z,1.2
2016-11-13T03:35:31.591Z,1.18
2016-11-13T03:36:31.820Z,1.11
2016-11-13T03:37:31.480Z,1.16
2016-11-13T03:38:31.733Z,1.27
2016-11-13T03:39:31.690Z,1.26
2016-11-13T03:40:31.346Z,1.16
2016-11-13T03:41:31.606Z,1.2
2016-11-13T03:42:31.565Z,1.3
2016-11-13T03:43:31.531Z,1.23
2016-11-13T03:44:31.478Z,1.16
2016-11-13T03:45:31.439Z,1.26
2016-11-13T03:46:31.393Z,1.14
2016-11-13T03:47:31.350Z,1.16
2016-11-13T03:48:31.308Z,1.3
2016-11-13T03:49:30.970Z,1.23
2016-11-13T03:50:31.227Z,1.29
2016-11-13T03:51:30.898Z,1.27
2016-11-13T03:52:30.844Z,1.29
2016-11-13T03:53:30.790Z,1.24
2016-11-13T03:54:31.053Z,1.24
2016-11-13T03:55:31.008Z,1.26
2016-11-13T03:56:30.967Z,1.3
2016-11-13T03:57:30.932Z,1.23
2016-11-13T03:58:30.881Z,1.24
2016-11-13T03:59:30.574Z,1.26
2016-11-13T04:00:30.803Z,1.29
2016-11-13T04:01:30.757Z,1.24
2016-11-13T04:02:30.412Z,1.26
2016-11-13T04:03:30.071Z,1.33
2016-11-13T04:04:30.634Z,1.24
2016-11-13T04:05:30.590Z,1.27
2016-11-13T04:06:30.575Z,1.27
2016-11-13T04:07:30.206Z,1.32
2016-11-13T04:08:30.462Z,1.36
2016-11-13T04:09:30.417Z,1.29
2016-11-13T04:10:30.078Z,1.29
2016-11-13T04:11:30.337Z,1.27
2016-11-13T04:12:30.290Z,1.26
2016-11-13T04:13:30.254Z,1.26
2016-11-13T04:14:30.206Z,1.26
2016-11-13T04:15:30.169Z,1.27
2016-11-13T04:16:29.821Z,1.26
2016-11-13T04:17:30.083Z,1.27
2016-11-13T04:18:30.038Z,1.29
2016-11-13T04:19:29.692Z,1.22
2016-11-13T04:20:29.654Z,1.22
2016-11-13T04:21:29.914Z,1.22
2016-11-13T04:22:29.567Z,1.24
2016-11-13T04:23:29.825Z,1.23
2016-11-13T04:24:29.480Z,1.33
2016-11-13T04:25:29.441Z,1.23
2016-11-13T04:26:29.398Z,1.29
2016-11-13T04:27:29.657Z,1.29
2016-11-13T04:28:29.312Z,1.23
2016-11-13T04:29:29.577Z,1.3
2016-11-13T04:30:29.238Z,1.26
2016-11-13T04:31:29.489Z,1.3
2016-11-13T04:32:29.152Z,1.3
2016-11-13T04:33:29.406Z,1.3
2016-11-13T04:34:29.360Z,1.29
2016-11-13T04:35:29.014Z,1.36
2016-11-13T04:36:29.274Z,1.42
2016-11-13T04:37:28.933Z,1.33
2016-11-13T04:38:29.189Z,1.33
2016-11-13T04:39:29.155Z,1.41
2016-11-13T04:40:29.150Z,1.4
2016-11-13T04:41:28.761Z,1.4
2016-11-13T04:42:29.021Z,1.45
2016-11-13T04:43:28.979Z,1.37
2016-11-13T04:44:28.941Z,1.54
2016-11-13T04:45:28.593Z,1.48
2016-11-13T04:46:28.550Z,1.47
2016-11-13T04:47:28.517Z,1.52
2016-11-13T04:48:28.461Z,1.5
2016-11-13T04:49:28.726Z,1.47
2016-11-13T04:50:28.680Z,1.58
2016-11-13T04:51:28.641Z,1.54
2016-11-13T04:52:28.302Z,1.58
2016-11-13T04:53:28.566Z,1.54
2016-11-13T04:54:28.512Z,1.58
2016-11-13T04:55:28.470Z,1.6
2016-11-13T04:56:28.447Z,1.59
2016-11-13T04:57:28.085Z,1.68
2016-11-13T04:58:28.345Z,1.62
2016-11-13T04:59:28.305Z,1.66
2016-11-13T05:00:28.264Z,1.73
2016-11-13T05:01:27.920Z,1.66
2016-11-13T05:02:28.178Z,1.73
2016-11-13T05:03:28.140Z,1.73
2016-11-13T05:04:28.090Z,1.8
2016-11-13T05:05:28.051Z,1.76
2016-11-13T05:06:28.044Z,1.77
2016-11-13T05:07:27.972Z,1.8
2016-11-13T05:08:27.625Z,1.87
2016-11-13T05:09:27.883Z,1.8
2016-11-13T05:10:27.848Z,1.8
2016-11-13T05:11:27.800Z,1.86
2016-11-13T05:12:27.754Z,1.86
2016-11-13T05:13:27.714Z,1.86
2016-11-13T05:14:27.674Z,1.88
2016-11-13T05:15:27.027Z,1.88
2016-11-13T05:16:27.287Z,1.93
2016-11-13T05:17:27.550Z,2.02
2016-11-13T05:18:27.501Z,2.02
2016-11-13T05:19:26.857Z,1.91
2016-11-13T05:20:27.118Z,1.91
2016-11-13T05:21:27.379Z,1.91
2016-11-13T05:22:27.341Z,1.9
2016-11-13T05:23:27.295Z,1.91
2016-11-13T05:24:26.645Z,1.95
2016-11-13T05:25:26.909Z,1.93
2016-11-13T05:26:27.169Z,2
2016-11-13T05:27:27.128Z,2.03
2016-11-13T05:28:26.781Z,1.95
2016-11-13T05:29:27.039Z,2
2016-11-13T05:30:26.997Z,2.1
2016-11-13T05:31:26.657Z,1.98
2016-11-13T05:32:26.614Z,2.03
2016-11-13T05:33:26.571Z,2.07
2016-11-13T05:34:26.231Z,2
2016-11-13T05:35:26.797Z,2.09
2016-11-13T05:36:26.754Z,2.07
2016-11-13T05:37:26.428Z,2.02
2016-11-13T05:38:26.664Z,2.06
2016-11-13T05:39:26.623Z,2.03
2016-11-13T05:40:26.275Z,2.03
2016-11-13T05:41:26.538Z,2.12
2016-11-13T05:42:25.890Z,2.05
2016-11-13T05:43:26.492Z,2.1
2016-11-13T05:44:26.137Z,2.06
2016-11-13T05:45:26.373Z,2.12
2016-11-13T05:46:26.023Z,2.2
2016-11-13T05:47:26.286Z,2.06
2016-11-13T05:48:26.242Z,2.17
2016-11-13T05:49:25.900Z,2.17
2016-11-13T05:50:25.856Z,2.18
2016-11-13T05:51:25.831Z,2.18
2016-11-13T05:52:26.083Z,2.18
2016-11-13T05:53:25.734Z,2.18
2016-11-13T05:54:25.991Z,2.18
2016-11-13T05:55:25.646Z,2.14
2016-11-13T05:56:25.910Z,2.16
2016-11-13T05:57:25.566Z,2.28
2016-11-13T05:58:25.828Z,2.23
2016-11-13T05:59:25.782Z,2.34
2016-11-13T06:00:25.738Z,2.27
2016-11-13T06:01:25.694Z,2.34
2016-11-13T06:02:25.659Z,2.25
2016-11-13T06:03:25.614Z,2.34
2016-11-13T06:04:25.572Z,2.27
2016-11-13T06:05:25.528Z,2.25
2016-11-13T06:06:25.188Z,2.28
2016-11-13T06:07:25.449Z,2.24
2016-11-13T06:08:25.406Z,2.28
2016-11-13T06:09:25.364Z,2.3
2016-11-13T06:10:25.029Z,2.3
2016-11-13T06:11:25.275Z,2.31
2016-11-13T06:12:25.243Z,2.24
2016-11-13T06:13:25.204Z,2.34
2016-11-13T06:14:25.153Z,2.28
2016-11-13T06:15:24.808Z,2.3
2016-11-13T06:16:25.071Z,2.31
2016-11-13T06:17:25.032Z,2.31
2016-11-13T06:18:24.990Z,2.34
2016-11-13T06:19:24.650Z,2.3
2016-11-13T06:20:24.938Z,2.28
2016-11-13T06:21:24.864Z,2.27
2016-11-13T06:22:24.521Z,2.34
2016-11-13T06:23:24.474Z,2.36
2016-11-13T06:24:24.737Z,2.41
2016-11-13T06:25:24.390Z,2.31
2016-11-13T06:26:24.653Z,2.41
2016-11-13T06:27:24.613Z,2.34
2016-11-13T06:28:24.562Z,2.38
2016-11-13T06:29:24.225Z,2.41
2016-11-13T06:30:24.491Z,2.38
2016-11-13T06:31:24.140Z,2.34
2016-11-13T06:32:24.097Z,2.38
2016-11-13T06:33:24.359Z,2.35
2016-11-13T06:34:24.319Z,2.39
2016-11-13T06:35:24.272Z,2.38
2016-11-13T06:36:24.227Z,2.35
2016-11-13T06:37:24.192Z,2.38
2016-11-13T06:38:24.148Z,2.35
2016-11-13T06:39:24.107Z,2.31
2016-11-13T06:40:24.067Z,2.38
2016-11-13T06:41:24.022Z,2.24
2016-11-13T06:42:23.982Z,2.3
2016-11-13T06:43:23.938Z,2.3
2016-11-13T06:44:23.900Z,2.28
2016-11-13T06:45:23.856Z,2.39
2016-11-13T06:46:23.826Z,2.3
2016-11-13T06:47:23.772Z,2.28
2016-11-13T06:48:23.732Z,2.39
2016-11-13T06:49:23.087Z,2.31
2016-11-13T06:50:23.345Z,2.39
2016-11-13T06:51:23.307Z,2.41
2016-11-13T06:52:23.263Z,2.36
2016-11-13T06:53:23.520Z,2.49
2016-11-13T06:54:23.478Z,2.52
2016-11-13T06:55:23.437Z,2.46
2016-11-13T06:56:23.404Z,2.42
2016-11-13T06:57:23.090Z,2.48
2016-11-13T06:58:23.014Z,2.45
2016-11-13T06:59:22.664Z,2.38
2016-11-13T07:00:23.228Z,2.36
2016-11-13T07:01:23.182Z,2.48
2016-11-13T07:02:22.840Z,2.46
2016-11-13T07:03:22.798Z,2.49
2016-11-13T07:04:22.757Z,2.49
2016-11-13T07:05:23.048Z,2.45
2016-11-13T07:06:22.676Z,2.45
2016-11-13T07:07:22.933Z,2.52
2016-11-13T07:08:22.893Z,2.46
2016-11-13T07:09:22.856Z,2.45
2016-11-13T07:10:22.504Z,2.57
2016-11-13T07:11:22.805Z,2.6
2016-11-13T07:12:22.723Z,2.56
2016-11-13T07:13:22.689Z,2.6
2016-11-13T07:14:22.644Z,2.63
2016-11-13T07:15:22.598Z,2.67
2016-11-13T07:16:22.558Z,2.61
2016-11-13T07:17:22.209Z,2.75
2016-11-13T07:18:22.169Z,2.75
2016-11-13T07:19:22.129Z,2.78
2016-11-13T07:20:22.389Z,2.82
2016-11-13T07:21:22.352Z,2.82
2016-11-13T07:22:22.315Z,2.78
2016-11-13T07:23:22.293Z,2.79
2016-11-13T07:24:22.222Z,2.87
2016-11-13T07:25:21.887Z,2.89
2016-11-13T07:26:22.140Z,2.81
2016-11-13T07:27:22.096Z,2.87
2016-11-13T07:28:22.057Z,2.84
2016-11-13T07:29:22.014Z,2.85
2016-11-13T07:30:21.972Z,2.84
2016-11-13T07:31:21.929Z,2.97
2016-11-13T07:32:21.890Z,2.87
2016-11-13T07:33:21.850Z,2.81
2016-11-13T07:34:21.806Z,2.81
2016-11-13T07:35:21.164Z,2.85
2016-11-13T07:36:21.724Z,2.81
2016-11-13T07:37:21.384Z,2.84
2016-11-13T07:38:21.646Z,2.89
2016-11-13T07:39:21.323Z,2.82
2016-11-13T07:40:21.256Z,2.89
2016-11-13T07:41:21.517Z,2.84
2016-11-13T07:42:21.474Z,2.79
2016-11-13T07:43:21.434Z,2.9
2016-11-13T07:44:21.089Z,2.9
2016-11-13T07:45:21.045Z,2.96
2016-11-13T07:46:21.310Z,2.87
2016-11-13T07:47:20.960Z,2.87
2016-11-13T07:48:21.227Z,2.97
2016-11-13T07:49:21.182Z,2.97
2016-11-13T07:50:21.141Z,2.9
2016-11-13T07:51:21.099Z,2.96
2016-11-13T07:52:21.091Z,3.02
2016-11-13T07:53:20.720Z,3.06
2016-11-13T07:54:20.672Z,2.96
2016-11-13T07:55:20.931Z,2.96
2016-11-13T07:56:20.890Z,2.97
2016-11-13T07:57:20.549Z,2.93
2016-11-13T07:58:20.842Z,2.97
2016-11-13T07:59:20.466Z,2.92
2016-11-13T08:00:20.429Z,2.97
2016-11-13T08:01:20.690Z,2.92
2016-11-13T08:02:20.677Z,2.95
2016-11-13T08:03:20.597Z,2.93
2016-11-13T08:04:20.558Z,3
2016-11-13T08:05:20.519Z,3
2016-11-13T08:06:20.178Z,3.1
2016-11-13T08:07:20.438Z,3.18
2016-11-13T08:08:20.393Z,3.21
2016-11-13T08:09:20.387Z,3.35
2016-11-13T08:10:20.354Z,3.43
2016-11-13T08:11:19.971Z,3.54
2016-11-13T08:12:19.955Z,3.6
2016-11-13T08:13:19.885Z,3.6
2016-11-13T08:14:20.145Z,3.54
2016-11-13T08:15:19.498Z,3.57
2016-11-13T08:16:20.064Z,3.66
2016-11-13T08:17:20.022Z,3.54
2016-11-13T08:18:19.978Z,3.62
2016-11-13T08:19:19.634Z,3.61
2016-11-13T08:20:19.592Z,3.62
2016-11-13T08:21:19.851Z,3.6
2016-11-13T08:22:19.809Z,3.57
2016-11-13T08:23:19.480Z,3.66
2016-11-13T08:24:19.731Z,3.57
2016-11-13T08:25:19.689Z,3.52
2016-11-13T08:26:19.657Z,3.58
2016-11-13T08:27:19.308Z,3.54
2016-11-13T08:28:19.563Z,3.51
2016-11-13T08:29:19.522Z,3.42
2016-11-13T08:30:19.485Z,3.5
2016-11-13T08:31:19.141Z,3.45
2016-11-13T08:32:19.397Z,3.39
2016-11-13T08:33:19.362Z,3.43
2016-11-13T08:34:19.325Z,3.4
2016-11-13T08:35:19.284Z,3.36
2016-11-13T08:36:19.246Z,3.43
2016-11-13T08:37:19.203Z,3.5
2016-11-13T08:38:19.154Z,3.58
2016-11-13T08:39:19.112Z,3.62
2016-11-13T08:40:18.767Z,3.69
2016-11-13T08:41:19.038Z,3.73
2016-11-13T08:42:18.692Z,3.87
2016-11-13T08:43:18.647Z,3.9
2016-11-13T08:44:18.909Z,3.93
2016-11-13T08:45:18.876Z,4.04
2016-11-13T08:46:18.830Z,4.05
2016-11-13T08:47:18.483Z,4.14
2016-11-13T08:48:18.440Z,4.18
2016-11-13T08:49:18.702Z,4.15
2016-11-13T08:50:18.663Z,4.22
2016-11-13T08:51:18.319Z,4.33
2016-11-13T08:52:18.276Z,4.3
2016-11-13T08:53:18.541Z,4.44
2016-11-13T08:54:18.529Z,4.48
2016-11-13T08:55:18.458Z,4.62
2016-11-13T08:56:18.418Z,4.44
2016-11-13T08:57:18.379Z,4.48
2016-11-13T08:58:18.330Z,4.5
2016-11-13T08:59:18.290Z,4.51
2016-11-13T09:00:18.255Z,4.51
2016-11-13T09:01:18.217Z,4.62
2016-11-13T09:02:17.866Z,4.58
2016-11-13T09:03:18.124Z,4.55
2016-11-13T09:04:18.305Z,4.58
2016-11-13T09:05:18.086Z,4.6
2016-11-13T09:06:18.010Z,4.67
2016-11-13T09:07:17.974Z,4.65
2016-11-13T09:08:18.127Z,4.75
2016-11-13T09:09:17.279Z,4.77
2016-11-13T09:10:17.540Z,4.8
2016-11-13T09:11:17.197Z,4.88
2016-11-13T09:12:17.459Z,4.85
2016-11-13T09:13:17.420Z,4.84
2016-11-13T09:14:17.383Z,4.84
2016-11-13T09:15:17.648Z,4.84
2016-11-13T09:16:17.631Z,4.88
2016-11-13T09:17:17.559Z,4.84
2016-11-13T09:18:17.216Z,4.84
2016-11-13T09:19:17.474Z,4.85
2016-11-13T09:20:17.140Z,4.89
2016-11-13T09:21:17.093Z,4.96
2016-11-13T09:22:17.361Z,4.99
2016-11-13T09:23:17.318Z,4.94
2016-11-13T09:24:17.280Z,5
2016-11-13T09:25:17.236Z,5.12
2016-11-13T09:26:17.194Z,5.12
2016-11-13T09:27:16.850Z,5.15
2016-11-13T09:28:16.814Z,5.15
2016-11-13T09:29:16.770Z,5.18
2016-11-13T09:30:17.038Z,5.24
2016-11-13T09:31:16.993Z,5.18
2016-11-13T09:32:16.950Z,5.12
2016-11-13T09:33:16.615Z,4.96
2016-11-13T09:34:16.573Z,4.97
2016-11-13T09:35:16.838Z,4.96
2016-11-13T09:36:16.505Z,4.94
2016-11-13T09:37:16.465Z,5.09
2016-11-13T09:38:16.719Z,5.1
2016-11-13T09:39:16.672Z,5.06
2016-11-13T09:40:16.326Z,5.17
2016-11-13T09:41:16.586Z,5.02
2016-11-13T09:42:16.561Z,4.99
2016-11-13T09:43:16.518Z,4.86
2016-11-13T09:44:16.167Z,4.82
2016-11-13T09:45:16.428Z,4.78
2016-11-13T09:46:16.400Z,4.91
2016-11-13T09:47:16.352Z,4.86
2016-11-13T09:48:16.326Z,4.88
2016-11-13T09:49:15.973Z,4.88
2016-11-13T09:50:16.232Z,4.86
2016-11-13T09:51:16.196Z,5
2016-11-13T09:52:15.851Z,5
2016-11-13T09:53:15.808Z,5.07
2016-11-13T09:54:15.764Z,5.04
2016-11-13T09:55:15.443Z,5.12
2016-11-13T09:56:15.987Z,5.22
2016-11-13T09:57:15.339Z,5.35
2016-11-13T09:58:15.299Z,5.45
2016-11-13T09:59:15.259Z,5.42
2016-11-13T10:00:15.825Z,5.51
2016-11-13T10:01:15.783Z,5.53
2016-11-13T10:02:15.754Z,5.54
2016-11-13T10:03:15.102Z,5.48
2016-11-13T10:04:15.057Z,5.56
2016-11-13T10:05:15.623Z,5.56
2016-11-13T10:06:15.587Z,5.48
2016-11-13T10:07:15.241Z,5.48
2016-11-13T10:08:15.200Z,5.54
2016-11-13T10:09:15.156Z,5.51
2016-11-13T10:10:15.426Z,5.46
2016-11-13T10:11:15.079Z,5.43
2016-11-13T10:12:15.045Z,5.43
2016-11-13T10:13:15.002Z,5.42
2016-11-13T10:14:15.266Z,5.48
2016-11-13T10:15:15.222Z,5.4
2016-11-13T10:16:15.195Z,5.4
2016-11-13T10:17:15.150Z,5.4
2016-11-13T10:18:15.054Z,5.35
2016-11-13T10:19:14.465Z,5.28
2016-11-13T10:20:14.724Z,5.36
2016-11-13T10:21:14.985Z,5.33
2016-11-13T10:22:14.645Z,5.28
2016-11-13T10:23:14.305Z,5.17
2016-11-13T10:24:14.560Z,5.17
2016-11-13T10:25:14.822Z,4.96
2016-11-13T10:26:14.784Z,5
2016-11-13T10:27:14.449Z,4.85
2016-11-13T10:28:14.703Z,4.86
2016-11-13T10:29:14.400Z,4.86
2016-11-13T10:30:14.332Z,4.91
2016-11-13T10:31:14.310Z,5
2016-11-13T10:32:14.551Z,5
2016-11-13T10:33:14.502Z,4.97
2016-11-13T10:34:14.461Z,5.03
2016-11-13T10:35:14.419Z,4.97
2016-11-13T10:36:14.384Z,4.97
2016-11-13T10:37:14.055Z,4.97
2016-11-13T10:38:13.994Z,5.12
2016-11-13T10:39:13.961Z,5.15
2016-11-13T10:40:14.225Z,5.17
2016-11-13T10:41:14.180Z,5.13
2016-11-13T10:42:14.140Z,5.13
2016-11-13T10:43:13.497Z,5.15
2016-11-13T10:44:14.057Z,5.07
2016-11-13T10:45:14.017Z,5.21
2016-11-13T10:46:13.987Z,5.24
2016-11-13T10:47:13.656Z,5.31
2016-11-13T10:48:13.893Z,5.33
2016-11-13T10:49:13.859Z,5.31
2016-11-13T10:50:13.819Z,5.39
2016-11-13T10:51:13.469Z,5.43
2016-11-13T10:52:13.742Z,5.51
2016-11-13T10:53:13.696Z,5.46
2016-11-13T10:54:13.654Z,5.48
2016-11-13T10:55:13.613Z,5.56
2016-11-13T10:56:13.571Z,5.39
2016-11-13T10:57:13.537Z,5.35
2016-11-13T10:58:13.491Z,5.43
2016-11-13T10:59:13.449Z,5.45
2016-11-13T11:00:13.107Z,5.31
2016-11-13T11:01:13.104Z,5.42
2016-11-13T11:02:13.333Z,5.43
2016-11-13T11:03:13.290Z,5.35
2016-11-13T11:04:12.945Z,5.33
2016-11-13T11:05:12.910Z,5.25
2016-11-13T11:06:13.332Z,5.33
2016-11-13T11:07:13.130Z,5.33
2016-11-13T11:08:13.103Z,5.39
2016-11-13T11:09:12.749Z,5.28
2016-11-13T11:10:12.706Z,5.31
2016-11-13T11:11:12.972Z,5.31
2016-11-13T11:12:12.933Z,5.35
2016-11-13T11:13:12.920Z,5.27
2016-11-13T11:14:12.846Z,5.27
2016-11-13T11:15:12.505Z,5.3
2016-11-13T11:16:12.771Z,5.38
2016-11-13T11:17:12.429Z,5.45
2016-11-13T11:18:12.385Z,5.46
2016-11-13T11:19:12.349Z,5.51
2016-11-13T11:20:12.307Z,5.51
2016-11-13T11:21:12.266Z,5.6
2016-11-13T11:22:12.539Z,5.46
2016-11-13T11:23:12.188Z,5.53
2016-11-13T11:24:11.847Z,5.46
2016-11-13T11:25:11.808Z,5.53
2016-11-13T11:26:12.368Z,5.45
2016-11-13T11:27:12.026Z,5.54
2016-11-13T11:28:11.983Z,5.49
2016-11-13T11:29:11.943Z,5.6
2016-11-13T11:30:11.904Z,5.58
2016-11-13T11:31:12.165Z,5.64
2016-11-13T11:32:12.133Z,5.64
2016-11-13T11:33:11.783Z,5.56
2016-11-13T11:34:11.741Z,5.6
2016-11-13T11:35:11.701Z,5.67
2016-11-13T11:36:11.968Z,5.74
2016-11-13T11:37:11.923Z,5.75
2016-11-13T11:38:11.894Z,5.75
2016-11-13T11:39:11.843Z,5.72
2016-11-13T11:40:11.805Z,5.74
2016-11-13T11:41:11.462Z,5.79
2016-11-13T11:42:11.733Z,5.75
2016-11-13T11:43:11.692Z,5.72
2016-11-13T11:44:11.339Z,5.71
2016-11-13T11:45:11.607Z,5.79
2016-11-13T11:46:11.264Z,5.74
2016-11-13T11:47:11.564Z,5.72
2016-11-13T11:48:10.883Z,5.74
2016-11-13T11:49:10.843Z,5.82
2016-11-13T11:50:11.437Z,5.74
2016-11-13T11:51:11.368Z,5.71
2016-11-13T11:52:11.326Z,5.78
2016-11-13T11:53:11.286Z,5.79
2016-11-13T11:54:10.940Z,5.75
2016-11-13T11:55:11.207Z,5.78
2016-11-13T11:56:11.165Z,5.76
2016-11-13T11:57:11.125Z,5.76
2016-11-13T11:58:10.788Z,5.85
2016-11-13T11:59:10.742Z,5.85
2016-11-13T12:00:10.701Z,5.99
2016-11-13T12:01:10.971Z,6
2016-11-13T12:02:10.932Z,6.08
2016-11-13T12:03:10.585Z,6.06
2016-11-13T12:04:10.636Z,6.11
2016-11-13T12:05:10.503Z,6.12
2016-11-13T12:06:10.768Z,6.14
2016-11-13T12:07:11.392Z,6.19
2016-11-13T12:08:11.270Z,6.17
2016-11-13T12:09:10.416Z,6.25
2016-11-13T12:10:10.614Z,6.28
2016-11-13T12:11:10.274Z,6.21
2016-11-13T12:12:10.533Z,6.25
2016-11-13T12:13:10.490Z,6.22
2016-11-13T12:14:10.447Z,6.25
2016-11-13T12:15:10.144Z,6.25
2016-11-13T12:16:10.374Z,6.36
2016-11-13T12:17:10.327Z,6.3
2016-11-13T12:18:10.290Z,6.27
2016-11-13T12:19:10.503Z,6.18
2016-11-13T12:20:10.209Z,6.21
2016-11-13T12:21:09.865Z,6.3
2016-11-13T12:22:09.825Z,6.37
2016-11-13T12:23:10.149Z,6.37
2016-11-13T12:24:10.067Z,6.38
2016-11-13T12:25:10.008Z,6.41
2016-11-13T12:26:09.974Z,6.46
2016-11-13T12:27:09.637Z,6.49
2016-11-13T12:28:09.901Z,6.54
2016-11-13T12:29:09.855Z,6.46
2016-11-13T12:30:09.511Z,6.62
2016-11-13T12:31:09.774Z,6.58
2016-11-13T12:32:09.736Z,6.55
2016-11-13T12:33:09.714Z,6.52
2016-11-13T12:34:09.654Z,6.61
2016-11-13T12:35:09.309Z,6.69
2016-11-13T12:36:09.305Z,6.73
2016-11-13T12:37:09.534Z,6.67
2016-11-13T12:38:09.497Z,6.67
2016-11-13T12:39:09.512Z,6.67
2016-11-13T12:40:09.118Z,6.7
2016-11-13T12:41:09.441Z,6.66
2016-11-13T12:42:09.338Z,6.62
2016-11-13T12:43:09.350Z,6.71
2016-11-13T12:44:09.257Z,6.61
2016-11-13T12:45:09.222Z,6.64
2016-11-13T12:46:08.873Z,6.67
2016-11-13T12:47:08.843Z,6.67
2016-11-13T12:48:09.111Z,6.66
2016-11-13T12:49:09.055Z,6.61
2016-11-13T12:50:08.729Z,6.58
2016-11-13T12:51:08.990Z,6.61
2016-11-13T12:52:08.945Z,6.58
2016-11-13T12:53:08.603Z,6.69
2016-11-13T12:54:08.873Z,6.62
2016-11-13T12:55:08.827Z,6.61
2016-11-13T12:56:08.798Z,6.67
2016-11-13T12:57:08.748Z,6.55
2016-11-13T12:58:08.651Z,6.62
2016-11-13T12:59:08.859Z,6.69
2016-11-13T13:00:08.895Z,6.62
2016-11-13T13:01:09.205Z,6.73
2016-11-13T13:02:08.582Z,6.67
2016-11-13T13:03:08.900Z,6.59
2016-11-13T13:04:08.762Z,6.69
2016-11-13T13:05:09.014Z,6.66
2016-11-13T13:06:09.081Z,6.73
2016-11-13T13:07:08.123Z,6.69
2016-11-13T13:08:08.704Z,6.7
2016-11-13T13:09:22.741Z,6.66
2016-11-13T13:10:08.268Z,6.73
2016-11-13T13:11:08.435Z,6.64
2016-11-13T13:12:08.547Z,6.7
2016-11-13T13:13:07.814Z,6.7
2016-11-13T13:14:08.115Z,6.69
2016-11-13T13:15:08.509Z,6.73
2016-11-13T13:16:08.592Z,6.62
2016-11-13T13:17:08.312Z,6.69
2016-11-13T13:18:09.226Z,6.56
2016-11-13T13:19:08.259Z,6.61
2016-11-13T13:20:08.293Z,6.54